This is the latest recevied weather packets stored in our database for station/object R2AKT-13. If no packets are shown the sender has not sent any weather packets the latest 1 day(s).
| Time | Temp. | Humidity | Pressure | Rain* | Wind** | Luminosity | Snow |
|---|---|---|---|---|---|---|---|
| 1778049824 | 19.44° C | 53% | 984 hPa | - | 0.89 m/s, 157° | - | - |
| 1778049264 | 18.89° C | 55% | 984 hPa | - | 1.79 m/s, 304° | - | - |
| 1778048719 | 19.44° C | 53% | 983.9 hPa | - | 1.34 m/s, 186° | - | - |
| 1778048210 | 20° C | 51% | 983.7 hPa | - | 0.45 m/s, 136° | - | - |
| 1778047662 | 19.44° C | 54% | 983.7 hPa | - | 0.89 m/s, 268° | - | - |
| 1778047169 | 18.89° C | 55% | 983.7 hPa | - | 0.45 m/s, 145° | - | - |
| 1778046679 | 18.89° C | 55% | 983.7 hPa | - | 0.89 m/s, 98° | - | - |
| 1778046169 | 18.89° C | 60% | 983.7 hPa | - | 0.45 m/s, 93° | - | - |
| 1778045614 | 18.33° C | 61% | 983.9 hPa | - | 0.45 m/s, 219° | - | - |
| 1778045044 | 17.78° C | 64% | 983.9 hPa | - | 0.45 m/s, 236° | - | - |
| 1778044524 | 17.22° C | 64% | 983.8 hPa | - | 0 m/s | - | - |
| 1778043974 | 17.22° C | 64% | 983.7 hPa | - | 0.45 m/s, 263° | - | - |
| 1778043394 | 17.22° C | 65% | 983.6 hPa | - | 0 m/s | - | - |
| 1778042864 | 17.22° C | 60% | 983.5 hPa | - | 0.45 m/s, 277° | - | - |
| 1778042354 | 17.78° C | 59% | 983.1 hPa | - | 0 m/s | - | - |
| 1778041784 | 17.78° C | 58% | 983 hPa | - | 0 m/s | - | - |
| 1778041254 | 17.22° C | 60% | 982.9 hPa | - | 0 m/s | - | - |
| 1778040708 | 16.67° C | 63% | 982.9 hPa | - | 0.45 m/s, 182° | - | - |
| 1778040199 | 16.67° C | 60% | 983 hPa | - | 0 m/s | - | - |
| 1778039714 | 16.11° C | 66% | 982.9 hPa | - | 0 m/s | - | - |
| 1778039149 | 15° C | 71% | 983 hPa | - | 0 m/s | - | - |
| 1778038619 | 17.22° C | 56% | 982.8 hPa | - | 0 m/s | - | - |
| 1778038109 | 17.22° C | 59% | 982.7 hPa | - | 0 m/s | - | - |
| 1778037529 | 17.78° C | 56% | 982.7 hPa | - | 0 m/s | - | - |
| 1778037028 | 17.22° C | 55% | 982.8 hPa | - | 0 m/s | - | - |
* Rain since midnight (hover to see other rain measurements)
** Current wind speed in m/s (hover to see current wind gust speed)